createdAt,value
2019-02-23T00:00:14.773Z,5.53
2019-02-23T00:02:47.506Z,5.52
2019-02-23T00:05:20.239Z,5.52
2019-02-23T00:07:53.086Z,5.57
2019-02-23T00:10:25.817Z,5.46
2019-02-23T00:12:58.560Z,5.46
2019-02-23T00:15:31.427Z,5.55
2019-02-23T00:18:04.251Z,5.49
2019-02-23T00:20:36.925Z,5.42
2019-02-23T00:23:09.755Z,5.40
2019-02-23T00:25:42.514Z,5.20
2019-02-23T00:28:15.279Z,5.28
2019-02-23T00:30:47.911Z,5.31
2019-02-23T00:33:20.743Z,5.33
2019-02-23T00:35:53.476Z,5.31
2019-02-23T00:38:26.163Z,5.44
2019-02-23T00:40:58.998Z,5.44
2019-02-23T00:43:32.089Z,5.38
2019-02-23T00:46:04.940Z,5.46
2019-02-23T00:48:37.646Z,5.45
2019-02-23T00:51:10.411Z,5.33
2019-02-23T00:53:43.166Z,5.22
2019-02-23T00:56:15.993Z,5.32
2019-02-23T00:58:48.725Z,5.47
2019-02-23T01:01:21.454Z,5.38
2019-02-23T01:03:54.336Z,5.29
2019-02-23T01:06:27.135Z,5.31
2019-02-23T01:08:59.838Z,5.43
2019-02-23T01:11:32.578Z,5.40
2019-02-23T01:14:05.414Z,5.19
2019-02-23T01:16:38.206Z,5.18
2019-02-23T01:19:10.946Z,5.27
2019-02-23T01:21:43.641Z,5.48
2019-02-23T01:24:16.466Z,5.36
2019-02-23T01:26:49.197Z,5.27
2019-02-23T01:29:21.971Z,5.24
2019-02-23T01:31:54.748Z,5.18
2019-02-23T01:34:27.442Z,5.17
2019-02-23T01:37:00.168Z,5.22
2019-02-23T01:39:32.889Z,5.29
2019-02-23T01:42:05.603Z,5.31
2019-02-23T01:44:38.418Z,5.27
2019-02-23T01:47:11.128Z,5.26
2019-02-23T01:49:43.942Z,5.29
2019-02-23T01:52:16.723Z,5.30
2019-02-23T01:54:49.476Z,5.16
2019-02-23T01:57:22.315Z,5.25
2019-02-23T01:59:55.089Z,5.24
2019-02-23T02:02:27.919Z,5.17
2019-02-23T02:05:00.842Z,5.27
2019-02-23T02:07:33.552Z,5.20
2019-02-23T02:10:08.366Z,5.41
2019-02-23T02:12:41.317Z,5.52
2019-02-23T02:15:15.704Z,5.50
2019-02-23T02:17:48.577Z,5.44
2019-02-23T02:20:21.394Z,5.26
2019-02-23T02:22:55.469Z,5.31
2019-02-23T02:25:28.376Z,5.30
2019-02-23T02:28:01.076Z,5.49
2019-02-23T02:30:33.788Z,5.36
2019-02-23T02:33:06.625Z,5.42
2019-02-23T02:35:39.386Z,5.10
2019-02-23T02:38:12.111Z,5.08
2019-02-23T02:40:44.831Z,5.11
2019-02-23T02:43:17.599Z,4.88
2019-02-23T02:45:50.385Z,4.77
2019-02-23T02:48:23.275Z,4.84
2019-02-23T02:50:56.070Z,5.10
2019-02-23T02:53:28.744Z,4.93
2019-02-23T02:56:01.494Z,4.53
2019-02-23T02:58:34.225Z,4.58
2019-02-23T03:01:07.332Z,4.85
2019-02-23T03:03:40.002Z,4.93
2019-02-23T03:06:12.880Z,4.88
2019-02-23T03:08:46.057Z,4.41
2019-02-23T03:11:18.830Z,4.08
2019-02-23T03:13:51.635Z,4.05
2019-02-23T03:16:24.425Z,4.06
2019-02-23T03:18:57.088Z,4.01
2019-02-23T03:21:29.850Z,3.82
2019-02-23T03:24:02.526Z,3.71
2019-02-23T03:26:35.311Z,3.64
2019-02-23T03:29:07.931Z,3.91
2019-02-23T03:31:40.707Z,4.06
2019-02-23T03:34:13.390Z,3.99
2019-02-23T03:36:46.219Z,3.74
2019-02-23T03:39:18.909Z,3.50
2019-02-23T03:41:51.591Z,3.50
2019-02-23T03:44:24.505Z,3.40
2019-02-23T03:46:57.202Z,3.10
2019-02-23T03:49:29.892Z,2.84
2019-02-23T03:52:02.595Z,2.69
2019-02-23T03:54:35.361Z,2.72
2019-02-23T03:57:08.119Z,2.55
2019-02-23T03:59:40.906Z,2.55
2019-02-23T04:02:13.562Z,2.40
2019-02-23T04:04:46.375Z,2.19
2019-02-23T04:07:19.166Z,2.24
2019-02-23T04:09:51.942Z,2.22
2019-02-23T04:12:24.657Z,2.52
2019-02-23T04:14:57.423Z,2.50
2019-02-23T04:17:30.139Z,2.33
2019-02-23T04:20:03.000Z,2.38
2019-02-23T04:22:35.703Z,2.19
2019-02-23T04:25:08.695Z,1.97
2019-02-23T04:27:45.213Z,1.96
2019-02-23T04:30:18.026Z,2.05
2019-02-23T04:32:50.738Z,1.94
2019-02-23T04:35:23.607Z,1.82
2019-02-23T04:37:56.416Z,1.80
2019-02-23T04:40:29.098Z,1.68
2019-02-23T04:43:01.861Z,1.69
2019-02-23T04:45:34.537Z,1.63
2019-02-23T04:48:09.714Z,1.57
2019-02-23T04:50:42.480Z,1.50
2019-02-23T04:53:15.694Z,1.44
2019-02-23T04:55:48.424Z,1.36
2019-02-23T04:58:21.718Z,1.14
2019-02-23T05:00:54.612Z,1.31
2019-02-23T05:03:27.406Z,1.16
2019-02-23T05:06:00.230Z,0.96
2019-02-23T05:08:32.871Z,1.08
2019-02-23T05:11:05.642Z,1.01
2019-02-23T05:13:38.458Z,0.80
2019-02-23T05:16:11.292Z,0.68
2019-02-23T05:18:44.068Z,0.75
2019-02-23T05:21:25.973Z,0.69
2019-02-23T05:23:51.361Z,0.57
2019-02-23T05:26:24.165Z,0.32
2019-02-23T05:28:56.902Z,0.37
2019-02-23T05:31:29.994Z,0.69
2019-02-23T05:34:02.652Z,0.71
2019-02-23T05:36:35.551Z,0.69
2019-02-23T05:39:09.159Z,0.82
2019-02-23T05:41:41.859Z,0.72
2019-02-23T05:44:14.613Z,1.10
2019-02-23T05:46:47.363Z,1.41
2019-02-23T05:49:20.029Z,1.62
2019-02-23T05:51:52.779Z,1.85
2019-02-23T05:54:25.484Z,2.17
2019-02-23T05:56:58.223Z,2.22
2019-02-23T05:59:30.905Z,2.84
2019-02-23T06:02:03.679Z,2.64
2019-02-23T06:04:36.403Z,2.76
2019-02-23T06:07:09.169Z,2.55
2019-02-23T06:09:41.977Z,2.66
2019-02-23T06:12:14.797Z,2.72
2019-02-23T06:14:47.521Z,2.58
2019-02-23T06:17:20.223Z,2.63
2019-02-23T06:19:52.919Z,2.88
2019-02-23T06:22:25.592Z,2.91
2019-02-23T06:24:58.296Z,2.86
2019-02-23T06:27:31.178Z,2.88
2019-02-23T06:30:04.027Z,2.98
2019-02-23T06:32:36.750Z,3.03
2019-02-23T06:35:10.137Z,3.06
2019-02-23T06:37:42.854Z,2.98
2019-02-23T06:40:15.548Z,3.05
2019-02-23T06:42:48.211Z,3.01
2019-02-23T06:45:20.900Z,3.01
2019-02-23T06:47:53.585Z,3.11
2019-02-23T06:50:26.315Z,3.03
2019-02-23T06:52:59.288Z,2.99
2019-02-23T06:55:32.031Z,3.12
2019-02-23T06:58:04.759Z,3.09
2019-02-23T07:00:37.469Z,3.15
2019-02-23T07:03:10.137Z,3.24
2019-02-23T07:05:42.827Z,3.19
2019-02-23T07:08:15.638Z,3.23
2019-02-23T07:10:48.357Z,3.19
2019-02-23T07:13:21.109Z,3.31
2019-02-23T07:15:54.077Z,3.31
2019-02-23T07:18:26.734Z,3.40
2019-02-23T07:20:59.504Z,3.30
2019-02-23T07:23:32.382Z,3.38
2019-02-23T07:26:05.234Z,3.32
2019-02-23T07:28:37.886Z,3.37
2019-02-23T07:31:10.605Z,3.37
2019-02-23T07:33:44.667Z,3.40
2019-02-23T07:36:17.392Z,3.50
2019-02-23T07:38:50.068Z,3.86
2019-02-23T07:41:22.969Z,4.09
2019-02-23T07:43:55.772Z,4.33
2019-02-23T07:46:28.586Z,4.50
2019-02-23T07:49:01.287Z,4.64
2019-02-23T07:51:34.038Z,4.75
2019-02-23T07:54:06.731Z,4.80
2019-02-23T07:56:39.480Z,4.98
2019-02-23T07:59:12.283Z,4.99
2019-02-23T08:01:45.005Z,5.21
2019-02-23T08:04:17.300Z,5.32
2019-02-23T08:06:50.001Z,5.63
2019-02-23T08:09:23.647Z,6.06
2019-02-23T08:11:56.292Z,6.84
2019-02-23T08:14:29.021Z,7.55
2019-02-23T08:17:06.842Z,7.40
2019-02-23T08:19:39.604Z,7.60
2019-02-23T08:22:12.283Z,7.74
2019-02-23T08:24:45.024Z,8.13
2019-02-23T08:27:17.667Z,8.33
2019-02-23T08:29:50.459Z,8.80
2019-02-23T08:32:23.091Z,9.91
2019-02-23T08:34:55.934Z,9.80
2019-02-23T08:37:28.589Z,9.22
2019-02-23T08:40:01.274Z,8.47
2019-02-23T08:42:33.977Z,8.71
2019-02-23T08:45:07.478Z,8.58
2019-02-23T08:47:40.142Z,8.47
2019-02-23T08:50:13.999Z,9.14
2019-02-23T08:52:49.500Z,9.76
2019-02-23T08:55:21.117Z,9.34
2019-02-23T08:57:53.827Z,8.76
2019-02-23T09:00:26.656Z,9.07
2019-02-23T09:02:59.521Z,9.15
2019-02-23T09:05:32.423Z,9.70
2019-02-23T09:08:05.130Z,9.25
2019-02-23T09:10:37.904Z,9.16
2019-02-23T09:13:10.633Z,9.12
2019-02-23T09:15:43.421Z,9.84
2019-02-23T09:18:16.097Z,10.27
2019-02-23T09:20:48.765Z,10.34
2019-02-23T09:23:21.619Z,10.73
2019-02-23T09:25:54.374Z,11.45
2019-02-23T09:28:27.377Z,10.82
2019-02-23T09:31:00.006Z,10.32
2019-02-23T09:33:31.890Z,10.29
2019-02-23T09:36:04.543Z,9.75
2019-02-23T09:38:37.222Z,9.29
2019-02-23T09:41:09.927Z,9.41
2019-02-23T09:43:42.750Z,9.19
2019-02-23T09:46:15.469Z,8.93
2019-02-23T09:48:48.148Z,8.87
2019-02-23T09:51:20.991Z,9.02
2019-02-23T09:53:53.708Z,9.51
2019-02-23T09:56:26.441Z,9.88
2019-02-23T09:58:59.231Z,9.80
2019-02-23T10:01:32.010Z,9.90
2019-02-23T10:04:04.979Z,10.02
2019-02-23T10:06:37.682Z,10.22
2019-02-23T10:09:11.320Z,10.71
2019-02-23T10:11:44.163Z,10.82
2019-02-23T10:14:16.926Z,11.19
2019-02-23T10:16:49.643Z,11.27
2019-02-23T10:19:22.494Z,11.34
2019-02-23T10:21:55.347Z,11.49
2019-02-23T10:24:28.090Z,10.68
2019-02-23T10:27:00.783Z,10.79
2019-02-23T10:29:33.696Z,11.29
2019-02-23T10:32:06.472Z,11.75
2019-02-23T10:34:39.423Z,11.70
2019-02-23T10:37:12.204Z,10.68
2019-02-23T10:39:45.042Z,10.82
2019-02-23T10:42:17.762Z,10.66
2019-02-23T10:44:50.516Z,10.78
2019-02-23T10:47:23.485Z,11.34
2019-02-23T10:49:56.305Z,11.79
2019-02-23T10:52:29.141Z,11.04
2019-02-23T10:55:01.863Z,11.74
2019-02-23T10:57:34.746Z,11.62
2019-02-23T11:00:15.216Z,11.42
2019-02-23T11:02:48.093Z,11.23
2019-02-23T11:05:21.304Z,10.88
2019-02-23T11:07:54.115Z,11.33
2019-02-23T11:10:26.829Z,10.44
2019-02-23T11:12:59.515Z,9.79
2019-02-23T11:15:32.301Z,9.61
2019-02-23T11:18:05.458Z,9.71
2019-02-23T11:20:38.907Z,9.71
2019-02-23T11:23:11.748Z,10.00
2019-02-23T11:25:44.473Z,10.45
2019-02-23T11:28:17.176Z,11.15
2019-02-23T11:30:50.017Z,12.06
2019-02-23T11:33:22.807Z,12.02
2019-02-23T11:35:55.759Z,11.68
2019-02-23T11:38:28.638Z,11.26
2019-02-23T11:41:01.414Z,10.78
2019-02-23T11:43:34.097Z,10.60
2019-02-23T11:46:06.839Z,10.54
2019-02-23T11:48:39.582Z,10.27
2019-02-23T11:51:12.235Z,10.61
2019-02-23T11:53:54.626Z,10.85
2019-02-23T11:56:19.659Z,11.19
2019-02-23T11:58:52.613Z,11.78
2019-02-23T12:01:25.433Z,11.18
2019-02-23T12:03:58.153Z,11.00
2019-02-23T12:06:31.136Z,11.20
2019-02-23T12:09:04.351Z,10.92
2019-02-23T12:11:37.220Z,10.59
2019-02-23T12:14:09.968Z,10.91
2019-02-23T12:16:42.866Z,10.65
2019-02-23T12:19:15.677Z,10.53
2019-02-23T12:21:48.451Z,10.72
2019-02-23T12:24:21.239Z,10.96
2019-02-23T12:26:53.987Z,11.22
2019-02-23T12:29:26.776Z,10.80
2019-02-23T12:31:59.504Z,10.91
2019-02-23T12:34:32.268Z,11.03
2019-02-23T12:37:05.143Z,11.60
2019-02-23T12:39:38.005Z,12.68
2019-02-23T12:42:10.825Z,13.08
2019-02-23T12:44:43.545Z,12.25
2019-02-23T12:47:16.295Z,12.18
2019-02-23T12:49:49.120Z,11.47
2019-02-23T12:52:22.095Z,11.58
2019-02-23T12:54:55.011Z,12.18
2019-02-23T12:57:28.010Z,11.80
2019-02-23T13:00:00.916Z,12.17
2019-02-23T13:02:33.725Z,12.26
2019-02-23T13:05:06.843Z,13.10
2019-02-23T13:07:39.684Z,13.80
2019-02-23T13:10:12.714Z,13.55
2019-02-23T13:13:38.872Z,13.30
2019-02-23T13:16:53.396Z,13.38
2019-02-23T13:20:25.716Z,13.76
2019-02-23T13:23:30.535Z,13.33
2019-02-23T13:26:58.829Z,12.86
2019-02-23T13:30:25.918Z,12.76
2019-02-23T13:33:55.320Z,12.43
2019-02-23T13:37:10.343Z,12.64
2019-02-23T13:40:28.441Z,13.02
2019-02-23T13:43:38.011Z,13.41
2019-02-23T13:46:47.443Z,13.13
2019-02-23T13:50:08.804Z,13.18
2019-02-23T13:53:30.884Z,12.55
2019-02-23T13:56:47.434Z,12.22
2019-02-23T14:01:02.319Z,12.60
2019-02-23T14:04:27.554Z,12.95
2019-02-23T14:07:35.682Z,13.03
2019-02-23T14:11:10.215Z,13.38
2019-02-23T14:14:09.984Z,12.66
2019-02-23T14:17:09.976Z,13.57
2019-02-23T14:20:24.246Z,12.69
2019-02-23T14:24:04.371Z,12.19
2019-02-23T14:27:24.427Z,12.11
2019-02-23T14:30:31.221Z,11.50
2019-02-23T14:33:40.235Z,11.42
2019-02-23T14:36:34.258Z,11.17
2019-02-23T14:40:16.310Z,11.59
2019-02-23T14:43:27.542Z,11.52
2019-02-23T14:47:21.972Z,11.65
2019-02-23T14:50:47.699Z,10.66
2019-02-23T14:54:13.766Z,10.68
2019-02-23T14:58:03.317Z,10.46
2019-02-23T15:01:54.006Z,10.50
2019-02-23T15:05:23.605Z,10.45
2019-02-23T15:09:01.337Z,9.95
2019-02-23T15:12:32.525Z,9.80
2019-02-23T15:16:17.100Z,9.75
2019-02-23T15:19:40.853Z,9.65
2019-02-23T15:22:51.003Z,9.59
2019-02-23T15:26:26.826Z,9.86
2019-02-23T15:29:48.675Z,10.09
2019-02-23T15:33:08.609Z,10.14
2019-02-23T15:36:25.984Z,10.07
2019-02-23T15:40:06.189Z,9.85
2019-02-23T15:43:32.023Z,9.87
2019-02-23T15:47:09.034Z,9.73
2019-02-23T15:49:41.758Z,9.69
2019-02-23T15:52:14.849Z,9.53
2019-02-23T15:54:47.609Z,9.73
2019-02-23T15:57:20.315Z,9.62
2019-02-23T15:59:52.999Z,9.62
2019-02-23T16:02:25.821Z,9.53
2019-02-23T16:04:58.559Z,9.50
2019-02-23T16:07:31.205Z,9.41
2019-02-23T16:10:03.939Z,9.35
2019-02-23T16:12:36.551Z,9.26
2019-02-23T16:15:09.558Z,9.08
2019-02-23T16:17:42.202Z,9.20
2019-02-23T16:20:14.933Z,9.20
2019-02-23T16:22:50.608Z,9.01
2019-02-23T16:25:23.305Z,8.84
2019-02-23T16:27:57.054Z,8.82
2019-02-23T16:30:29.677Z,8.75
2019-02-23T16:33:03.105Z,8.63
2019-02-23T16:35:35.831Z,8.61
2019-02-23T16:38:08.551Z,8.55
2019-02-23T16:40:41.275Z,8.36
2019-02-23T16:43:14.035Z,8.24
2019-02-23T16:45:46.712Z,8.21
2019-02-23T16:48:19.538Z,8.08
2019-02-23T16:50:52.238Z,7.92
2019-02-23T16:53:25.084Z,7.85
2019-02-23T16:55:57.796Z,7.73
2019-02-23T16:58:30.575Z,7.69
2019-02-23T17:01:04.295Z,7.51
2019-02-23T17:03:37.217Z,7.36
2019-02-23T17:06:09.937Z,7.28
2019-02-23T17:08:41.903Z,7.19
2019-02-23T17:11:14.731Z,7.03
2019-02-23T17:13:47.453Z,7.14
2019-02-23T17:16:20.141Z,7.17
2019-02-23T17:18:52.957Z,7.36
2019-02-23T17:21:25.705Z,7.50
2019-02-23T17:23:58.470Z,7.45
2019-02-23T17:26:31.226Z,7.35
2019-02-23T17:29:04.040Z,7.34
2019-02-23T17:31:36.797Z,7.23
2019-02-23T17:34:09.421Z,7.15
2019-02-23T17:36:42.253Z,7.24
2019-02-23T17:39:15.014Z,7.26
2019-02-23T17:41:47.699Z,7.18
2019-02-23T17:44:20.721Z,7.06
2019-02-23T17:46:53.426Z,7.01
2019-02-23T17:49:26.144Z,6.89
2019-02-23T17:51:58.840Z,6.97
2019-02-23T17:54:31.461Z,7.05
2019-02-23T17:57:04.245Z,6.88
2019-02-23T17:59:37.005Z,6.83
2019-02-23T18:02:09.707Z,6.70
2019-02-23T18:04:42.494Z,6.63
2019-02-23T18:07:15.153Z,6.83
2019-02-23T18:09:47.912Z,6.78
2019-02-23T18:12:20.605Z,6.78
2019-02-23T18:14:53.250Z,6.73
2019-02-23T18:17:25.972Z,6.81
2019-02-23T18:19:58.845Z,6.88
2019-02-23T18:22:31.541Z,6.84
2019-02-23T18:25:04.334Z,6.67
2019-02-23T18:27:36.975Z,6.61
2019-02-23T18:30:12.397Z,6.49
2019-02-23T18:32:44.888Z,6.53
2019-02-23T18:35:17.612Z,6.53
2019-02-23T18:37:50.357Z,6.63
2019-02-23T18:40:23.010Z,6.55
2019-02-23T18:42:55.709Z,6.58
2019-02-23T18:45:28.380Z,6.60
2019-02-23T18:48:01.039Z,6.45
2019-02-23T18:50:33.733Z,6.28
2019-02-23T18:53:06.527Z,6.35
2019-02-23T18:55:41.341Z,6.30
2019-02-23T18:58:14.033Z,6.39
2019-02-23T19:00:46.736Z,6.25
2019-02-23T19:03:19.408Z,6.21
2019-02-23T19:05:52.058Z,6.21
2019-02-23T19:08:24.779Z,6.06
2019-02-23T19:10:57.508Z,6.16
2019-02-23T19:13:30.218Z,6.10
2019-02-23T19:16:02.964Z,6.10
2019-02-23T19:18:35.686Z,6.09
2019-02-23T19:21:08.459Z,6.01
2019-02-23T19:23:41.478Z,5.88
2019-02-23T19:26:14.244Z,5.73
2019-02-23T19:28:47.208Z,5.80
2019-02-23T19:31:19.921Z,5.81
2019-02-23T19:33:52.738Z,5.81
2019-02-23T19:36:25.413Z,5.89
2019-02-23T19:38:58.168Z,5.82
2019-02-23T19:41:30.935Z,5.75
2019-02-23T19:44:03.966Z,5.70
2019-02-23T19:46:42.858Z,5.64
2019-02-23T19:49:15.524Z,5.53
2019-02-23T19:51:48.385Z,5.44
2019-02-23T19:54:21.065Z,5.36
2019-02-23T19:56:53.808Z,5.26
2019-02-23T19:59:26.474Z,5.27
2019-02-23T20:01:59.155Z,5.30
2019-02-23T20:04:31.844Z,5.28
2019-02-23T20:07:04.584Z,5.24
2019-02-23T20:09:37.280Z,5.27
2019-02-23T20:12:10.037Z,5.08
2019-02-23T20:14:42.909Z,4.95
2019-02-23T20:17:15.758Z,5.04
2019-02-23T20:19:48.430Z,4.94
2019-02-23T20:22:21.131Z,4.91
2019-02-23T20:24:53.892Z,4.90
2019-02-23T20:27:26.654Z,4.97
2019-02-23T20:29:59.316Z,5.05
2019-02-23T20:32:32.719Z,4.93
2019-02-23T20:35:05.585Z,4.83
2019-02-23T20:37:38.341Z,4.73
2019-02-23T20:40:11.503Z,4.71
2019-02-23T20:42:44.476Z,4.69
2019-02-23T20:45:17.347Z,4.53
2019-02-23T20:47:50.201Z,4.48
2019-02-23T20:50:22.886Z,4.52
2019-02-23T20:52:55.566Z,4.44
2019-02-23T20:55:28.263Z,4.32
2019-02-23T20:58:00.980Z,4.14
2019-02-23T21:00:33.905Z,4.12
2019-02-23T21:03:06.774Z,4.09
2019-02-23T21:05:39.503Z,3.83
2019-02-23T21:08:12.230Z,3.91
2019-02-23T21:10:45.010Z,3.94
2019-02-23T21:13:17.655Z,3.86
2019-02-23T21:15:50.358Z,3.73
2019-02-23T21:18:23.157Z,3.74
2019-02-23T21:20:55.862Z,3.72
2019-02-23T21:23:28.628Z,3.60
2019-02-23T21:26:01.393Z,3.59
2019-02-23T21:28:34.074Z,3.78
2019-02-23T21:31:06.817Z,3.87
2019-02-23T21:33:39.687Z,3.81
2019-02-23T21:36:12.451Z,3.78
2019-02-23T21:38:45.173Z,3.70
2019-02-23T21:41:17.920Z,3.55
2019-02-23T21:43:50.576Z,3.64
2019-02-23T21:46:23.447Z,3.56
2019-02-23T21:48:56.234Z,3.47
2019-02-23T21:51:28.955Z,3.49
2019-02-23T21:54:09.772Z,3.48
2019-02-23T21:56:36.117Z,3.44
2019-02-23T21:59:08.862Z,3.37
2019-02-23T22:01:41.765Z,3.35
2019-02-23T22:04:14.502Z,3.26
2019-02-23T22:06:47.293Z,3.22
2019-02-23T22:09:21.229Z,3.24
2019-02-23T22:11:53.919Z,3.16
2019-02-23T22:14:26.730Z,3.12
2019-02-23T22:16:59.443Z,3.06
2019-02-23T22:19:32.183Z,3.04
2019-02-23T22:22:04.925Z,3.01
2019-02-23T22:24:37.687Z,2.82
2019-02-23T22:27:10.402Z,2.71
2019-02-23T22:29:43.076Z,2.77
2019-02-23T22:32:15.822Z,2.72
2019-02-23T22:34:48.639Z,2.79
2019-02-23T22:37:21.321Z,2.82
2019-02-23T22:39:54.087Z,2.93
2019-02-23T22:42:26.819Z,2.91
2019-02-23T22:44:59.475Z,2.85
2019-02-23T22:47:32.286Z,2.82
2019-02-23T22:50:05.129Z,2.74
2019-02-23T22:52:39.043Z,2.70
2019-02-23T22:55:11.914Z,2.43
2019-02-23T22:57:44.782Z,2.41
2019-02-23T23:00:21.534Z,2.46
2019-02-23T23:02:54.267Z,2.48
2019-02-23T23:05:27.097Z,2.46
2019-02-23T23:07:59.833Z,2.32
2019-02-23T23:10:32.687Z,2.28
2019-02-23T23:13:05.463Z,2.21
2019-02-23T23:15:38.141Z,2.35
2019-02-23T23:18:10.780Z,2.47
2019-02-23T23:20:43.434Z,2.32
2019-02-23T23:23:16.263Z,2.41
2019-02-23T23:25:48.958Z,2.53
2019-02-23T23:28:21.651Z,2.39
2019-02-23T23:30:54.350Z,2.38
2019-02-23T23:33:27.114Z,2.48
2019-02-23T23:35:59.849Z,2.43
2019-02-23T23:38:33.747Z,2.49
2019-02-23T23:41:06.685Z,2.40
2019-02-23T23:43:39.359Z,2.31
2019-02-23T23:46:12.055Z,2.43
2019-02-23T23:48:44.753Z,2.30
2019-02-23T23:51:17.441Z,2.30
2019-02-23T23:53:50.201Z,2.16
2019-02-23T23:56:23.030Z,2.05
2019-02-23T23:58:55.718Z,1.90
